Time;durP1;ratioP1;P1;durP2;ratioP2;P2;SDS_P1;SDS_P2;PMS_P1;PMS_P2;Temp;Humidity;BMP_temperature;BMP_pressure;BME280_temperature;BME280_humidity;BME280_pressure;Samples;Min_cycle;Max_cycle;Signal;HPM_P1;HPM_P2
2023/05/25 00:01:42;;;;;;;11.20;4.47;;;10.60;99.90;;;;;;5009161;28;20205;-65
2023/05/25 00:04:15;;;;;;;9.32;3.70;;;10.40;99.90;;;;;;5025799;28;21588;-65
2023/05/25 00:06:44;;;;;;;13.82;4.30;;;10.40;99.90;;;;;;5042314;28;20715;-64
2023/05/25 00:09:11;;;;;;;8.85;3.90;;;10.30;99.90;;;;;;5027002;28;20205;-65
2023/05/25 00:11:38;;;;;;;15.00;5.00;;;10.30;99.90;;;;;;5041945;28;20193;-65
2023/05/25 00:14:05;;;;;;;12.18;4.25;;;10.30;99.90;;;;;;5023820;28;20204;-65
2023/05/25 00:16:36;;;;;;;13.85;4.43;;;10.30;99.90;;;;;;5010405;28;20240;-65
2023/05/25 00:19:03;;;;;;;9.57;4.40;;;10.20;99.90;;;;;;5038401;28;20570;-66
2023/05/25 00:21:33;;;;;;;12.93;3.72;;;10.10;99.90;;;;;;5022433;28;20209;-65
2023/05/25 00:24:00;;;;;;;8.15;3.90;;;10.00;99.90;;;;;;5034690;28;20308;-65
2023/05/25 00:26:26;;;;;;;11.25;4.30;;;9.90;99.90;;;;;;5023399;28;20231;-65
2023/05/25 00:28:53;;;;;;;9.77;4.38;;;9.90;99.90;;;;;;5028721;28;20205;-64
2023/05/25 00:31:20;;;;;;;8.35;4.18;;;9.90;99.90;;;;;;5035800;28;20197;-65
2023/05/25 00:33:47;;;;;;;16.83;5.25;;;9.80;99.90;;;;;;5010207;28;20228;-64
2023/05/25 00:36:14;;;;;;;14.93;5.53;;;9.80;99.90;;;;;;5024543;28;20217;-64
2023/05/25 00:38:42;;;;;;;8.25;4.78;;;9.70;99.90;;;;;;5037987;28;21164;-64
2023/05/25 00:41:08;;;;;;;13.15;4.72;;;9.60;99.90;;;;;;5030603;28;20201;-64
2023/05/25 00:43:35;;;;;;;10.55;4.90;;;9.60;99.90;;;;;;5033646;28;20208;-64
2023/05/25 00:46:03;;;;;;;8.77;5.18;;;9.50;99.90;;;;;;5025956;28;20591;-65
2023/05/25 00:48:29;;;;;;;11.35;4.75;;;9.50;99.90;;;;;;5011142;28;20212;-64
2023/05/25 00:51:00;;;;;;;11.13;5.63;;;9.40;99.90;;;;;;5024973;28;20209;-65
2023/05/25 00:53:27;;;;;;;12.63;5.78;;;9.30;99.90;;;;;;5029409;28;20859;-65
2023/05/25 00:56:02;;;;;;;16.00;5.00;;;9.20;99.90;;;;;;5030415;28;20225;-65
2023/05/25 00:58:33;;;;;;;11.20;5.07;;;9.30;99.90;;;;;;5032976;28;20205;-64
2023/05/25 01:01:01;;;;;;;15.85;5.90;;;9.10;99.90;;;;;;5024446;28;20201;-65
2023/05/25 01:03:34;;;;;;;17.42;6.05;;;9.10;99.90;;;;;;5011768;28;20212;-64
2023/05/25 01:06:03;;;;;;;12.63;5.80;;;9.10;99.90;;;;;;5024068;28;20201;-65
2023/05/25 01:08:35;;;;;;;14.77;5.47;;;9.20;99.90;;;;;;5042900;28;20204;-64
2023/05/25 01:11:05;;;;;;;9.93;5.22;;;9.10;99.90;;;;;;5033818;28;20203;-64
2023/05/25 01:13:33;;;;;;;13.35;5.30;;;9.10;99.90;;;;;;5031105;28;20689;-64
2023/05/25 01:16:00;;;;;;;13.93;6.07;;;9.10;99.90;;;;;;5014132;28;20232;-64
2023/05/25 01:18:27;;;;;;;15.90;5.40;;;9.00;99.90;;;;;;5008772;28;20205;-65
2023/05/25 01:21:11;;;;;;;14.00;6.22;;;9.00;99.90;;;;;;5035281;28;20205;-65
2023/05/25 01:23:43;;;;;;;13.98;5.78;;;8.90;99.90;;;;;;5024099;28;20205;-64
2023/05/25 01:26:16;;;;;;;8.70;5.47;;;8.90;99.90;;;;;;5033276;28;20205;-65
2023/05/25 01:28:46;;;;;;;20.58;6.45;;;8.90;99.90;;;;;;5028491;28;20694;-64
2023/05/25 01:31:15;;;;;;;13.87;5.93;;;8.90;99.90;;;;;;5021723;28;20204;-64
2023/05/25 01:33:43;;;;;;;12.15;6.25;;;8.90;99.90;;;;;;5011379;28;20775;-64
2023/05/25 01:36:12;;;;;;;14.07;6.50;;;8.90;99.90;;;;;;5042004;28;20239;-64
2023/05/25 01:38:40;;;;;;;17.53;6.17;;;8.90;99.90;;;;;;5022599;28;20687;-65
2023/05/25 01:41:06;;;;;;;9.27;6.07;;;8.90;99.90;;;;;;5037243;28;20658;-64
2023/05/25 01:43:33;;;;;;;11.80;5.53;;;8.90;99.90;;;;;;5028373;28;20208;-64
2023/05/25 01:46:10;;;;;;;9.77;5.93;;;8.80;99.90;;;;;;5006887;28;22972;-64
2023/05/25 01:48:45;;;;;;;9.25;6.45;;;8.80;99.90;;;;;;5024291;28;20204;-65
2023/05/25 01:51:24;;;;;;;12.67;6.17;;;8.80;99.90;;;;;;5030267;28;20200;-64
2023/05/25 01:53:56;;;;;;;15.00;5.80;;;8.80;99.90;;;;;;5021752;28;20906;-65
2023/05/25 01:56:25;;;;;;;9.43;6.07;;;8.70;99.90;;;;;;5045937;28;20221;-65
2023/05/25 01:58:54;;;;;;;12.90;6.40;;;8.70;99.90;;;;;;5029172;28;20200;-64
2023/05/25 02:01:22;;;;;;;11.17;6.13;;;8.60;99.90;;;;;;5026972;28;20200;-64
2023/05/25 02:03:49;;;;;;;14.47;6.10;;;8.60;99.90;;;;;;5025894;28;20216;-65
2023/05/25 02:06:17;;;;;;;19.87;6.00;;;8.60;99.90;;;;;;5010178;28;20224;-64
2023/05/25 02:08:45;;;;;;;11.67;6.30;;;8.60;99.90;;;;;;5019168;28;20602;-65
2023/05/25 02:11:13;;;;;;;16.17;6.28;;;8.60;99.90;;;;;;5040860;28;20196;-65
2023/05/25 02:13:40;;;;;;;12.33;6.47;;;8.50;99.90;;;;;;5033086;28;20603;-65
2023/05/25 02:16:07;;;;;;;14.50;7.17;;;8.50;99.90;;;;;;5028906;28;20254;-64
2023/05/25 02:18:34;;;;;;;12.23;6.63;;;8.60;99.90;;;;;;5043569;28;20207;-65
2023/05/25 02:21:01;;;;;;;12.60;7.07;;;8.60;99.90;;;;;;5007154;28;20204;-64
2023/05/25 02:23:30;;;;;;;10.07;5.90;;;8.60;99.90;;;;;;5021594;28;20212;-65
2023/05/25 02:25:57;;;;;;;12.43;6.80;;;8.60;99.90;;;;;;5039144;28;20208;-64
2023/05/25 02:28:23;;;;;;;13.10;6.57;;;8.60;99.90;;;;;;5044663;28;20197;-65
2023/05/25 02:30:50;;;;;;;11.83;6.93;;;8.60;99.90;;;;;;5016041;28;20217;-64
2023/05/25 02:33:19;;;;;;;11.60;6.67;;;8.70;99.90;;;;;;5045955;28;20228;-64
2023/05/25 02:35:46;;;;;;;10.87;6.37;;;8.70;99.90;;;;;;5013201;28;20286;-65
2023/05/25 02:38:13;;;;;;;17.80;6.63;;;8.70;99.90;;;;;;5028754;28;20662;-65
2023/05/25 02:40:41;;;;;;;11.97;6.70;;;8.70;99.90;;;;;;5045389;28;20206;-64
2023/05/25 02:43:08;;;;;;;9.20;6.20;;;8.80;99.90;;;;;;5047783;28;20823;-64
2023/05/25 02:45:35;;;;;;;10.87;6.97;;;8.90;99.90;;;;;;5032656;28;20335;-65
2023/05/25 02:48:02;;;;;;;11.07;6.60;;;8.90;99.90;;;;;;5033474;28;20212;-64
2023/05/25 02:50:29;;;;;;;10.82;6.15;;;8.90;99.90;;;;;;5030838;28;20205;-64
2023/05/25 02:52:55;;;;;;;11.60;6.55;;;8.90;99.90;;;;;;5003625;28;21549;-65
2023/05/25 02:55:24;;;;;;;12.77;7.23;;;8.90;99.90;;;;;;5044749;28;20830;-65
2023/05/25 02:57:52;;;;;;;14.40;6.95;;;8.90;99.90;;;;;;5038592;28;20228;-64
2023/05/25 03:00:20;;;;;;;11.47;6.90;;;8.90;99.90;;;;;;5031662;28;20212;-64
2023/05/25 03:02:47;;;;;;;13.63;6.70;;;8.90;99.90;;;;;;5029852;28;20278;-64
2023/05/25 03:05:15;;;;;;;13.60;6.90;;;8.90;99.90;;;;;;5033116;28;20212;-65
2023/05/25 03:07:41;;;;;;;12.52;6.95;;;8.80;99.90;;;;;;5013705;28;20205;-64
2023/05/25 03:10:09;;;;;;;11.90;6.70;;;8.70;99.90;;;;;;5028785;28;20201;-64
2023/05/25 03:12:36;;;;;;;15.80;7.17;;;8.70;99.90;;;;;;5043383;28;20981;-65
2023/05/25 03:15:04;;;;;;;11.90;6.73;;;8.70;99.90;;;;;;5032007;28;20208;-65
2023/05/25 03:17:31;;;;;;;11.00;6.90;;;8.70;99.90;;;;;;5047852;28;20235;-64
2023/05/25 03:19:58;;;;;;;12.83;6.80;;;8.70;99.90;;;;;;5031947;28;20710;-65
2023/05/25 03:22:25;;;;;;;9.40;6.70;;;8.70;99.90;;;;;;5012209;28;20930;-64
2023/05/25 03:24:52;;;;;;;11.83;6.40;;;8.80;99.90;;;;;;5023501;28;20811;-64
2023/05/25 03:27:19;;;;;;;11.60;6.70;;;8.80;99.90;;;;;;5036466;28;20197;-65
2023/05/25 03:29:48;;;;;;;12.38;7.47;;;8.80;99.90;;;;;;5040159;28;20220;-65
2023/05/25 03:32:16;;;;;;;13.43;7.07;;;8.90;99.90;;;;;;5027860;28;20942;-64
2023/05/25 03:34:43;;;;;;;12.07;7.27;;;8.80;99.90;;;;;;5020273;28;20220;-64
2023/05/25 03:37:10;;;;;;;11.73;6.97;;;8.90;99.90;;;;;;5008743;28;20578;-65
2023/05/25 03:39:37;;;;;;;12.70;7.00;;;8.90;99.90;;;;;;5010020;28;20215;-64
2023/05/25 03:42:05;;;;;;;11.77;7.83;;;8.90;99.90;;;;;;5028638;28;20236;-65
2023/05/25 03:44:31;;;;;;;9.77;6.68;;;9.00;99.90;;;;;;5040079;28;20197;-64
2023/05/25 03:46:58;;;;;;;13.60;7.30;;;9.00;99.90;;;;;;5031327;28;20197;-64
2023/05/25 03:49:26;;;;;;;11.70;7.07;;;9.00;99.90;;;;;;5012589;28;20221;-65
2023/05/25 03:51:53;;;;;;;15.90;6.77;;;9.00;99.90;;;;;;5007569;28;21748;-65
2023/05/25 03:54:20;;;;;;;13.27;6.97;;;9.10;99.90;;;;;;5003858;28;20263;-64
2023/05/25 03:56:47;;;;;;;11.55;6.45;;;9.10;99.90;;;;;;5001392;28;20236;-64
2023/05/25 03:59:14;;;;;;;11.40;7.10;;;9.10;99.90;;;;;;5033142;28;20217;-64
2023/05/25 04:01:40;;;;;;;9.48;6.80;;;9.10;99.90;;;;;;5024045;28;20205;-65
2023/05/25 04:04:07;;;;;;;12.70;6.85;;;9.20;99.90;;;;;;5012617;28;20629;-65
2023/05/25 04:06:36;;;;;;;13.35;7.43;;;9.30;99.90;;;;;;5026998;28;20360;-65
2023/05/25 04:09:03;;;;;;;19.70;7.28;;;9.30;99.90;;;;;;5001825;28;20354;-64
2023/05/25 04:11:30;;;;;;;12.23;6.28;;;9.40;99.90;;;;;;5002998;28;20731;-64
2023/05/25 04:13:58;;;;;;;12.63;6.78;;;9.40;99.90;;;;;;5034698;28;20209;-65
2023/05/25 04:16:25;;;;;;;16.88;7.05;;;9.40;99.90;;;;;;5036246;28;20219;-64
2023/05/25 04:18:52;;;;;;;13.52;6.85;;;9.50;99.90;;;;;;5028171;28;20197;-65
2023/05/25 04:21:19;;;;;;;12.13;6.72;;;9.50;99.90;;;;;;5022042;28;20201;-64
2023/05/25 04:23:48;;;;;;;11.07;6.55;;;9.60;99.90;;;;;;5008815;28;20300;-65
2023/05/25 04:26:15;;;;;;;13.23;6.50;;;9.60;99.90;;;;;;5006473;28;20201;-65
2023/05/25 04:28:42;;;;;;;10.15;6.30;;;9.60;99.90;;;;;;5041677;28;20681;-65
2023/05/25 04:31:11;;;;;;;11.73;6.45;;;9.60;99.90;;;;;;5037108;28;20618;-64
2023/05/25 04:33:39;;;;;;;11.10;7.13;;;9.60;99.90;;;;;;5025740;28;20242;-64
2023/05/25 04:36:07;;;;;;;10.57;6.55;;;9.60;99.90;;;;;;5024919;28;20213;-65
2023/05/25 04:38:34;;;;;;;13.32;6.93;;;9.60;99.90;;;;;;4995569;28;20241;-64
2023/05/25 04:41:02;;;;;;;13.50;6.50;;;9.70;99.90;;;;;;5019578;28;20220;-65
2023/05/25 04:43:29;;;;;;;12.10;6.45;;;9.80;99.90;;;;;;5029275;28;20545;-65
2023/05/25 04:45:56;;;;;;;12.13;6.13;;;9.80;99.90;;;;;;5039641;28;20221;-65
2023/05/25 04:48:24;;;;;;;9.70;6.47;;;9.80;99.90;;;;;;5024713;28;20679;-65
2023/05/25 04:50:52;;;;;;;11.35;6.00;;;9.90;99.90;;;;;;5013550;28;20788;-65
2023/05/25 04:53:19;;;;;;;22.25;6.75;;;9.90;99.90;;;;;;5016128;28;20224;-64
2023/05/25 04:55:46;;;;;;;18.88;6.93;;;9.90;99.90;;;;;;4996417;28;20315;-65
2023/05/25 04:58:14;;;;;;;11.73;6.60;;;9.90;99.90;;;;;;4998254;28;20235;-64
2023/05/25 05:00:41;;;;;;;9.27;6.32;;;10.00;99.90;;;;;;5027473;28;20221;-65
2023/05/25 05:03:08;;;;;;;12.00;6.10;;;10.00;99.90;;;;;;5032988;28;20223;-64
2023/05/25 05:05:35;;;;;;;9.15;6.05;;;10.10;99.90;;;;;;5021267;28;20630;-65
2023/05/25 05:08:03;;;;;;;15.02;6.63;;;10.10;99.90;;;;;;5024696;28;20232;-64
2023/05/25 05:10:29;;;;;;;12.70;6.53;;;10.20;99.90;;;;;;5008605;28;20232;-64
2023/05/25 05:12:56;;;;;;;12.15;6.60;;;10.30;99.90;;;;;;5000325;28;20710;-65
2023/05/25 05:15:25;;;;;;;15.82;7.32;;;10.40;99.90;;;;;;5016694;28;20758;-64
2023/05/25 05:17:51;;;;;;;9.02;6.10;;;10.40;99.90;;;;;;5035174;28;20255;-65
2023/05/25 05:20:19;;;;;;;16.20;7.22;;;10.50;99.90;;;;;;5028508;28;20710;-65
2023/05/25 05:22:45;;;;;;;13.50;6.88;;;10.60;99.90;;;;;;5035720;28;20224;-65
2023/05/25 05:25:12;;;;;;;13.65;6.30;;;10.60;99.90;;;;;;5012062;28;20210;-65
2023/05/25 05:27:40;;;;;;;12.63;6.13;;;10.80;99.90;;;;;;5043403;28;20201;-64
2023/05/25 05:30:08;;;;;;;12.57;5.80;;;10.80;99.90;;;;;;5025862;28;20225;-65
2023/05/25 05:32:36;;;;;;;11.85;6.18;;;10.80;99.90;;;;;;5035788;28;20198;-65
2023/05/25 05:35:04;;;;;;;9.07;6.43;;;10.90;99.90;;;;;;5043294;28;20224;-65
2023/05/25 05:37:31;;;;;;;9.48;5.47;;;10.90;99.90;;;;;;5025699;28;20216;-65
2023/05/25 05:39:57;;;;;;;7.65;5.53;;;11.00;99.90;;;;;;5024269;28;20686;-66
2023/05/25 05:42:24;;;;;;;13.77;5.43;;;10.90;99.90;;;;;;5030427;28;20322;-65
2023/05/25 05:44:51;;;;;;;14.60;5.65;;;11.10;99.90;;;;;;5013445;28;20205;-65
2023/05/25 05:47:18;;;;;;;13.00;5.00;;;11.10;99.90;;;;;;5035219;28;20521;-65
2023/05/25 05:49:46;;;;;;;8.60;4.57;;;11.20;99.90;;;;;;5041577;28;20192;-65
2023/05/25 05:52:12;;;;;;;15.18;5.18;;;11.20;99.90;;;;;;5013384;28;20661;-65
2023/05/25 05:54:39;;;;;;;7.78;4.63;;;11.20;99.90;;;;;;5037947;28;21135;-65
2023/05/25 05:57:06;;;;;;;10.10;4.93;;;11.20;99.90;;;;;;5011545;28;20221;-65
2023/05/25 05:59:34;;;;;;;11.13;4.28;;;11.20;99.90;;;;;;5024565;28;20490;-65
2023/05/25 06:02:01;;;;;;;10.75;4.35;;;11.20;99.90;;;;;;5033465;28;20224;-65
2023/05/25 06:04:27;;;;;;;9.48;3.92;;;11.20;99.90;;;;;;5034176;28;20421;-65
2023/05/25 06:06:55;;;;;;;9.60;4.57;;;11.20;99.90;;;;;;5006004;28;20220;-65
2023/05/25 06:09:22;;;;;;;9.02;4.07;;;11.30;99.90;;;;;;5038014;28;20189;-65
2023/05/25 06:14:18;;;;;;;13.48;3.85;;;11.30;99.90;;;;;;5002246;28;20962;-66
2023/05/25 06:16:45;;;;;;;9.85;3.70;;;11.30;99.90;;;;;;5025392;28;20211;-65
2023/05/25 06:19:13;;;;;;;13.45;4.07;;;11.30;99.90;;;;;;5039618;28;20197;-66
2023/05/25 06:21:40;;;;;;;13.70;4.38;;;11.40;99.90;;;;;;5038355;28;20205;-66
2023/05/25 06:24:08;;;;;;;11.82;3.53;;;11.40;99.90;;;;;;5025966;28;20229;-65
2023/05/25 06:26:37;;;;;;;10.60;3.70;;;11.40;99.90;;;;;;5010488;28;20852;-66
2023/05/25 06:29:04;;;;;;;8.73;3.75;;;11.40;99.90;;;;;;5028778;28;20319;-65
2023/05/25 06:31:31;;;;;;;16.48;4.38;;;11.50;99.90;;;;;;5028711;28;20202;-65
2023/05/25 06:33:57;;;;;;;11.55;4.10;;;11.50;99.90;;;;;;5038650;28;20233;-65
2023/05/25 06:36:24;;;;;;;18.70;4.85;;;11.50;99.90;;;;;;5030692;28;22270;-66
2023/05/25 06:38:51;;;;;;;14.15;4.03;;;11.50;99.90;;;;;;5030161;28;20225;-66
2023/05/25 06:41:19;;;;;;;11.55;4.30;;;11.60;99.90;;;;;;5038664;28;20584;-66
2023/05/25 06:43:46;;;;;;;12.68;4.45;;;11.60;99.90;;;;;;5010916;28;20205;-65
2023/05/25 06:46:16;;;;;;;11.57;3.95;;;11.60;99.90;;;;;;5015659;28;20217;-65
2023/05/25 06:48:43;;;;;;;18.35;3.97;;;11.60;99.90;;;;;;5044823;28;20204;-65
2023/05/25 06:51:10;;;;;;;14.18;4.00;;;11.60;99.90;;;;;;5038643;28;20240;-65
2023/05/25 06:53:38;;;;;;;11.73;4.18;;;11.70;99.90;;;;;;5017500;28;20205;-65
2023/05/25 06:56:05;;;;;;;16.40;4.45;;;11.70;99.90;;;;;;5041280;28;20198;-65
2023/05/25 06:58:33;;;;;;;12.50;3.72;;;11.70;99.90;;;;;;5013743;28;21299;-65
2023/05/25 07:01:00;;;;;;;15.35;3.70;;;11.80;99.90;;;;;;5030352;28;20209;-65
2023/05/25 07:03:27;;;;;;;13.68;3.97;;;11.90;99.90;;;;;;5034906;28;20209;-65
2023/05/25 07:05:54;;;;;;;16.27;4.03;;;11.90;99.90;;;;;;5046934;28;20221;-65
2023/05/25 07:08:20;;;;;;;12.40;4.20;;;12.00;99.90;;;;;;5030407;28;20315;-65
2023/05/25 07:10:47;;;;;;;10.65;3.92;;;12.00;99.90;;;;;;5035065;28;20221;-66
2023/05/25 07:13:14;;;;;;;15.60;4.45;;;12.00;99.90;;;;;;5011899;28;21079;-66
2023/05/25 07:15:42;;;;;;;17.27;4.25;;;12.00;99.90;;;;;;5040259;28;20240;-65
2023/05/25 07:18:11;;;;;;;18.73;4.50;;;12.10;99.90;;;;;;5018223;28;20239;-65
2023/05/25 07:20:40;;;;;;;20.98;4.50;;;12.10;99.90;;;;;;5043629;28;20194;-65
2023/05/25 07:23:07;;;;;;;16.48;5.43;;;12.20;99.90;;;;;;5022970;28;20220;-65
2023/05/25 07:25:34;;;;;;;19.85;4.90;;;12.20;99.90;;;;;;5025903;28;20225;-65
2023/05/25 07:28:01;;;;;;;17.55;4.18;;;12.20;99.90;;;;;;5043163;28;20292;-65
2023/05/25 07:30:28;;;;;;;25.58;4.47;;;12.40;99.90;;;;;;4992433;28;20212;-65
2023/05/25 07:32:57;;;;;;;13.82;3.85;;;12.20;99.90;;;;;;5011364;28;20205;-65
2023/05/25 07:35:24;;;;;;;23.70;4.22;;;12.20;99.90;;;;;;5023211;28;21059;-65
2023/05/25 07:37:57;;;;;;;22.35;4.35;;;12.30;99.90;;;;;;5042090;28;20220;-65
2023/05/25 07:40:24;;;;;;;18.33;3.83;;;12.30;99.90;;;;;;5023097;28;20205;-65
2023/05/25 07:42:50;;;;;;;15.52;3.92;;;12.30;99.90;;;;;;5032521;28;20200;-65
2023/05/25 07:45:17;;;;;;;14.65;4.15;;;12.30;99.90;;;;;;5012951;28;20220;-65
2023/05/25 07:47:44;;;;;;;16.33;3.65;;;12.30;99.90;;;;;;5019872;28;20737;-65
2023/05/25 07:50:13;;;;;;;20.50;3.45;;;12.30;99.90;;;;;;5018355;28;20205;-65
2023/05/25 07:52:40;;;;;;;14.23;3.83;;;12.40;99.90;;;;;;5041580;28;20747;-65
2023/05/25 07:55:08;;;;;;;14.25;3.75;;;12.40;99.90;;;;;;5033772;28;20204;-65
2023/05/25 07:57:34;;;;;;;10.48;3.65;;;12.50;99.90;;;;;;5030601;28;20419;-65
2023/05/25 08:00:02;;;;;;;15.00;3.67;;;12.40;99.90;;;;;;5019132;28;20212;-65
2023/05/25 08:02:28;;;;;;;19.65;3.95;;;12.50;99.90;;;;;;5025485;28;20205;-65
2023/05/25 08:04:55;;;;;;;16.02;4.15;;;12.70;99.90;;;;;;5020159;28;20205;-65
2023/05/25 08:07:24;;;;;;;19.30;4.32;;;12.80;99.90;;;;;;5033231;28;20197;-65
2023/05/25 08:09:51;;;;;;;17.00;3.70;;;12.80;99.90;;;;;;5020868;28;20235;-65
2023/05/25 08:12:17;;;;;;;16.73;4.32;;;12.90;99.90;;;;;;5033227;28;20574;-65
2023/05/25 08:14:44;;;;;;;17.67;3.83;;;12.80;99.90;;;;;;5027866;28;20204;-65
2023/05/25 08:17:11;;;;;;;20.35;5.15;;;12.80;99.90;;;;;;5019890;28;20200;-65
2023/05/25 08:19:38;;;;;;;13.23;3.45;;;12.80;99.90;;;;;;5036776;28;20229;-65
2023/05/25 08:22:05;;;;;;;22.25;3.88;;;12.80;99.90;;;;;;5009657;28;20297;-64
2023/05/25 08:24:33;;;;;;;16.15;5.47;;;12.80;99.90;;;;;;5014287;28;20211;-65
2023/05/25 08:27:00;;;;;;;10.73;3.67;;;12.80;99.90;;;;;;5024804;28;20236;-65
2023/05/25 08:29:27;;;;;;;17.80;4.50;;;12.70;99.90;;;;;;5010853;28;20205;-66
2023/05/25 08:31:54;;;;;;;15.95;3.53;;;12.80;99.90;;;;;;5007372;28;21069;-65
2023/05/25 08:34:21;;;;;;;16.35;3.47;;;13.00;99.90;;;;;;5017002;28;20240;-65
2023/05/25 08:36:48;;;;;;;17.95;4.38;;;13.00;99.90;;;;;;5026542;28;20201;-65
2023/05/25 08:39:15;;;;;;;14.00;3.67;;;13.10;99.90;;;;;;5028544;28;20232;-66
2023/05/25 08:41:44;;;;;;;22.50;4.35;;;13.10;99.90;;;;;;5029690;28;20847;-66
2023/05/25 08:44:13;;;;;;;14.98;3.83;;;13.00;99.90;;;;;;5020837;28;20205;-65
2023/05/25 08:46:40;;;;;;;19.30;4.38;;;13.20;99.90;;;;;;5009805;28;20282;-66
2023/05/25 08:49:09;;;;;;;18.20;4.10;;;13.10;99.90;;;;;;5025542;28;20205;-66
2023/05/25 08:51:37;;;;;;;16.75;3.60;;;13.10;99.90;;;;;;5025030;28;20685;-66
2023/05/25 08:54:07;;;;;;;18.90;4.35;;;13.20;99.90;;;;;;5028778;28;21410;-65
2023/05/25 08:56:40;;;;;;;17.42;4.15;;;13.40;99.90;;;;;;5029544;28;20208;-66
2023/05/25 08:59:16;;;;;;;20.50;3.53;;;13.50;99.90;;;;;;5030363;28;20235;-66
2023/05/25 09:01:46;;;;;;;19.63;4.82;;;13.50;99.90;;;;;;5006259;28;20626;-65
2023/05/25 09:04:16;;;;;;;20.27;4.85;;;13.40;99.90;;;;;;5016886;28;20212;-65
2023/05/25 09:06:44;;;;;;;18.95;4.38;;;13.30;99.90;;;;;;5023969;28;20229;-65
2023/05/25 09:09:12;;;;;;;16.13;4.80;;;13.40;99.90;;;;;;5022915;28;20677;-64
2023/05/25 09:11:40;;;;;;;14.65;3.78;;;13.40;99.90;;;;;;5042943;28;20231;-65
2023/05/25 09:14:09;;;;;;;12.75;3.67;;;13.30;99.90;;;;;;5016872;28;20242;-65
2023/05/25 09:16:37;;;;;;;21.60;4.78;;;13.30;99.90;;;;;;5002677;28;20609;-65
2023/05/25 09:19:04;;;;;;;18.50;4.55;;;13.10;99.90;;;;;;5039482;28;20797;-65
2023/05/25 09:21:31;;;;;;;17.63;4.57;;;13.20;99.90;;;;;;5038258;28;20208;-65
2023/05/25 09:23:59;;;;;;;18.58;4.60;;;13.20;99.90;;;;;;5030141;28;20200;-65
2023/05/25 09:26:26;;;;;;;16.48;5.32;;;13.20;99.90;;;;;;5037257;28;20205;-64
2023/05/25 09:28:53;;;;;;;17.42;4.55;;;13.20;99.90;;;;;;5033990;28;20200;-65
2023/05/25 09:31:23;;;;;;;21.38;4.72;;;13.30;99.90;;;;;;4998672;28;20206;-65
2023/05/25 09:33:54;;;;;;;24.27;4.22;;;13.40;99.90;;;;;;5038466;28;20239;-65
2023/05/25 09:36:21;;;;;;;25.52;4.25;;;13.40;99.90;;;;;;5031602;28;20740;-65
2023/05/25 09:38:48;;;;;;;13.88;4.18;;;13.40;99.90;;;;;;5029391;28;20800;-65
2023/05/25 09:41:16;;;;;;;17.70;4.00;;;13.50;99.90;;;;;;5038332;28;20205;-65
2023/05/25 09:43:42;;;;;;;20.38;4.32;;;13.70;99.90;;;;;;5034397;28;20662;-65
2023/05/25 09:46:09;;;;;;;22.48;4.40;;;13.70;99.90;;;;;;5033558;28;20205;-65
2023/05/25 09:48:37;;;;;;;17.92;3.80;;;13.70;99.90;;;;;;5008988;28;20205;-65
2023/05/25 09:51:07;;;;;;;22.30;5.43;;;13.80;99.90;;;;;;5037099;28;20211;-65
2023/05/25 09:53:34;;;;;;;15.15;3.80;;;13.70;99.90;;;;;;5027590;28;20251;-65
2023/05/25 09:56:01;;;;;;;17.40;4.40;;;13.70;99.90;;;;;;5042242;28;20200;-65
2023/05/25 09:58:28;;;;;;;19.52;4.97;;;13.70;99.90;;;;;;5030676;28;20232;-65
2023/05/25 10:00:55;;;;;;;16.50;4.10;;;13.50;99.90;;;;;;5034691;28;20204;-64
2023/05/25 10:03:22;;;;;;;15.10;3.95;;;13.50;99.90;;;;;;4985788;28;20224;-65
2023/05/25 10:05:51;;;;;;;20.23;3.72;;;13.60;99.90;;;;;;5035768;28;20951;-65
2023/05/25 10:08:20;;;;;;;17.30;3.58;;;13.70;99.90;;;;;;5022088;28;20319;-65
2023/05/25 10:10:48;;;;;;;15.80;3.88;;;13.70;99.90;;;;;;5044987;28;20203;-66
2023/05/25 10:13:18;;;;;;;21.48;4.88;;;13.70;99.90;;;;;;5018054;28;20221;-65
2023/05/25 10:15:47;;;;;;;25.13;4.63;;;13.80;99.90;;;;;;5031484;28;20201;-65
2023/05/25 10:18:15;;;;;;;14.73;4.47;;;14.00;99.90;;;;;;4999895;28;20220;-65
2023/05/25 10:20:43;;;;;;;24.60;4.18;;;14.00;99.90;;;;;;5032933;28;20630;-64
2023/05/25 10:23:16;;;;;;;11.73;3.30;;;13.80;99.90;;;;;;5028737;28;20204;-64
2023/05/25 10:25:46;;;;;;;18.77;3.38;;;13.90;99.90;;;;;;5043754;28;20208;-65
2023/05/25 10:28:21;;;;;;;24.73;4.43;;;13.70;99.90;;;;;;5031885;28;20201;-64
2023/05/25 10:30:50;;;;;;;18.73;4.70;;;13.70;99.90;;;;;;5038519;28;20207;-64
2023/05/25 10:33:18;;;;;;;24.60;4.85;;;13.80;99.90;;;;;;5030295;28;20212;-64
2023/05/25 10:35:46;;;;;;;25.33;4.72;;;14.00;99.90;;;;;;5006982;28;20219;-65
2023/05/25 10:38:14;;;;;;;15.88;4.10;;;14.00;99.90;;;;;;5027261;28;20185;-65
2023/05/25 10:40:41;;;;;;;17.50;4.53;;;14.10;99.90;;;;;;5045504;28;20208;-65
2023/05/25 10:43:08;;;;;;;24.27;4.68;;;13.90;99.90;;;;;;5027272;28;20216;-65
2023/05/25 10:45:35;;;;;;;13.02;4.00;;;13.80;99.90;;;;;;5021824;28;20224;-65
2023/05/25 10:48:02;;;;;;;19.30;5.57;;;13.90;99.90;;;;;;5035327;28;20222;-65
2023/05/25 10:50:36;;;;;;;23.05;4.75;;;13.90;99.90;;;;;;5013013;28;20903;-65
2023/05/25 10:53:05;;;;;;;27.55;5.10;;;13.90;99.90;;;;;;5033540;28;20209;-65
2023/05/25 10:55:48;;;;;;;19.10;4.57;;;13.60;99.90;;;;;;5037563;28;20415;-65
2023/05/25 10:58:17;;;;;;;15.75;3.88;;;13.50;99.90;;;;;;5022352;28;20675;-65
2023/05/25 11:00:57;;;;;;;18.30;4.38;;;13.60;99.90;;;;;;5021732;28;20252;-65
2023/05/25 11:03:50;;;;;;;20.00;4.00;;;13.70;99.90;;;;;;5009247;28;20197;-65
2023/05/25 11:06:19;;;;;;;19.58;4.47;;;13.90;99.90;;;;;;4972866;28;20243;-65
2023/05/25 11:08:51;;;;;;;16.40;4.03;;;14.00;99.90;;;;;;5002826;28;20251;-65
2023/05/25 11:11:19;;;;;;;18.65;4.40;;;14.10;99.90;;;;;;5044123;28;20209;-65
2023/05/25 11:13:48;;;;;;;18.67;4.38;;;14.00;99.90;;;;;;5031390;28;20232;-65
2023/05/25 11:16:16;;;;;;;18.70;4.53;;;14.00;99.90;;;;;;5035607;28;20574;-64
2023/05/25 11:18:45;;;;;;;21.48;4.03;;;13.90;99.90;;;;;;5014432;28;20285;-65
2023/05/25 11:21:13;;;;;;;24.27;4.97;;;14.00;99.90;;;;;;4996126;28;20229;-64
2023/05/25 11:23:53;;;;;;;15.80;3.85;;;13.80;99.90;;;;;;5017140;28;20240;-65
2023/05/25 11:26:22;;;;;;;15.70;3.60;;;13.70;99.90;;;;;;5041668;28;20220;-64
2023/05/25 11:28:51;;;;;;;17.75;4.10;;;13.60;99.90;;;;;;5018232;28;20241;-65
2023/05/25 11:31:22;;;;;;;10.88;3.78;;;13.60;99.90;;;;;;5039941;28;20243;-65
2023/05/25 11:33:50;;;;;;;16.42;4.75;;;13.60;99.90;;;;;;5025190;28;20231;-65
2023/05/25 11:36:19;;;;;;;17.75;5.22;;;13.60;99.90;;;;;;5007044;28;20211;-65
2023/05/25 11:38:46;;;;;;;12.93;3.38;;;13.70;99.90;;;;;;5033197;28;20248;-65
2023/05/25 11:41:17;;;;;;;18.83;4.53;;;13.90;99.90;;;;;;5045196;28;20218;-65
2023/05/25 11:43:46;;;;;;;10.77;3.25;;;14.20;99.90;;;;;;5033051;28;23134;-65
2023/05/25 11:46:13;;;;;;;21.27;5.45;;;14.30;99.90;;;;;;5042601;28;20971;-65
2023/05/25 11:48:43;;;;;;;18.88;4.43;;;14.40;99.90;;;;;;5018515;28;20193;-65
2023/05/25 11:51:10;;;;;;;18.40;5.00;;;14.50;99.90;;;;;;5001738;28;21026;-64
2023/05/25 11:53:42;;;;;;;12.38;4.10;;;14.30;99.90;;;;;;5048003;28;20197;-65
2023/05/25 11:56:09;;;;;;;21.45;5.07;;;14.30;99.90;;;;;;5027709;28;20247;-64
2023/05/25 11:58:36;;;;;;;20.60;4.57;;;14.50;99.90;;;;;;5041343;28;20236;-64
2023/05/25 12:01:19;;;;;;;18.27;4.82;;;14.30;99.90;;;;;;5034110;28;20197;-64
2023/05/25 12:03:47;;;;;;;20.30;5.30;;;14.10;99.90;;;;;;5027906;28;20217;-64
2023/05/25 12:06:27;;;;;;;12.25;3.78;;;14.10;99.90;;;;;;5033717;28;20209;-64
2023/05/25 12:08:54;;;;;;;24.65;4.63;;;14.10;99.90;;;;;;5015073;28;20248;-64
2023/05/25 12:11:32;;;;;;;18.63;3.83;;;14.20;99.90;;;;;;5016014;28;20981;-64
2023/05/25 12:14:00;;;;;;;15.27;4.40;;;14.30;99.90;;;;;;5036302;28;20407;-65
2023/05/25 12:16:30;;;;;;;19.98;4.18;;;14.30;99.90;;;;;;5032197;28;20577;-64
2023/05/25 12:18:58;;;;;;;20.63;4.70;;;14.20;99.90;;;;;;5026293;28;20225;-64
2023/05/25 12:21:25;;;;;;;20.48;4.63;;;14.40;99.90;;;;;;5049895;28;20212;-64
2023/05/25 12:23:54;;;;;;;20.30;4.93;;;14.30;99.90;;;;;;4998617;28;20978;-64
2023/05/25 12:26:21;;;;;;;15.80;4.10;;;14.20;99.90;;;;;;5024940;28;20635;-64
2023/05/25 12:28:59;;;;;;;16.35;4.35;;;14.10;99.90;;;;;;5039900;28;20204;-64
2023/05/25 12:31:27;;;;;;;21.73;5.00;;;14.20;99.90;;;;;;5028168;28;20213;-65
2023/05/25 12:34:05;;;;;;;21.40;4.68;;;14.20;99.90;;;;;;5033946;28;20256;-64
2023/05/25 12:36:44;;;;;;;13.60;3.75;;;14.40;99.90;;;;;;5025653;28;20207;-64
2023/05/25 12:39:12;;;;;;;15.75;3.90;;;14.30;99.90;;;;;;4979001;28;20216;-65
2023/05/25 12:41:45;;;;;;;26.75;5.22;;;14.20;99.90;;;;;;5020433;28;20232;-64
2023/05/25 12:44:24;;;;;;;20.30;4.65;;;14.20;99.90;;;;;;5025255;28;20678;-64
2023/05/25 12:46:52;;;;;;;21.45;5.70;;;14.30;99.90;;;;;;5021587;28;20866;-64
2023/05/25 12:49:25;;;;;;;22.17;5.80;;;14.40;99.90;;;;;;5038075;28;20208;-64